Time;durP1;ratioP1;P1;durP2;ratioP2;P2;SDS_P1;SDS_P2;PMS_P1;PMS_P2;Temp;Humidity;BMP_temperature;BMP_pressure;BME280_temperature;BME280_humidity;BME280_pressure;Samples;Min_cycle;Max_cycle;Signal;HPM_P1;HPM_P2
2021/11/17 02:26:53;;;;;;;3.89;3.49;;;;;;;18.66;54.53;100865.23;;;;-51
2021/11/17 02:29:53;;;;;;;3.64;3.33;;;;;;;18.66;54.61;100862.16;;;;-56
2021/11/17 02:32:53;;;;;;;4.00;3.61;;;;;;;18.65;54.59;100863.83;;;;-55
2021/11/17 02:35:53;;;;;;;3.63;3.33;;;;;;;18.64;54.63;100854.33;;;;-56
2021/11/17 02:39:53;;;;;;;3.88;3.51;;;;;;;18.62;54.59;100852.02;;;;-55
2021/11/17 02:42:55;;;;;;;4.03;3.63;;;;;;;18.62;54.63;100855.43;;;;-56
2021/11/17 02:45:53;;;;;;;3.86;3.36;;;;;;;18.61;54.68;100858.64;;;;-55
2021/11/17 02:48:53;;;;;;;4.19;3.67;;;;;;;18.60;54.61;100857.34;;;;-56
2021/11/17 02:51:53;;;;;;;3.77;3.40;;;;;;;18.60;54.67;100858.89;;;;-56
2021/11/17 02:54:53;;;;;;;3.73;3.41;;;;;;;18.58;54.67;100853.01;;;;-55
2021/11/17 02:57:53;;;;;;;4.05;3.62;;;;;;;18.58;54.65;100850.81;;;;-56
2021/11/17 03:00:53;;;;;;;4.10;3.37;;;;;;;18.57;54.67;100855.03;;;;-56
2021/11/17 03:03:53;;;;;;;3.84;3.47;;;;;;;18.57;54.67;100852.00;;;;-56
2021/11/17 03:06:53;;;;;;;4.05;3.65;;;;;;;18.56;54.64;100848.52;;;;-55
2021/11/17 03:09:54;;;;;;;3.93;3.53;;;;;;;18.55;54.63;100848.43;;;;-50
2021/11/17 03:12:53;;;;;;;3.78;3.38;;;;;;;18.55;54.63;100846.05;;;;-50
2021/11/17 03:15:53;;;;;;;3.70;3.40;;;;;;;18.54;54.63;100849.12;;;;-52
2021/11/17 03:19:53;;;;;;;3.79;3.41;;;;;;;18.53;54.68;100847.66;;;;-51
2021/11/17 03:22:53;;;;;;;3.51;3.21;;;;;;;18.52;54.67;100846.73;;;;-51
2021/11/17 03:25:53;;;;;;;3.55;3.25;;;;;;;18.51;54.69;100845.59;;;;-50
2021/11/17 03:28:53;;;;;;;3.80;3.40;;;;;;;18.50;54.73;100848.33;;;;-53
2021/11/17 03:31:53;;;;;;;3.85;3.45;;;;;;;18.51;54.71;100848.90;;;;-54
2021/11/17 03:34:54;;;;;;;4.24;3.36;;;;;;;18.50;54.70;100847.27;;;;-55
2021/11/17 03:37:53;;;;;;;3.51;3.21;;;;;;;18.49;54.73;100846.83;;;;-55
2021/11/17 03:40:53;;;;;;;3.61;3.27;;;;;;;18.48;54.74;100843.99;;;;-55
2021/11/17 03:43:53;;;;;;;3.87;3.23;;;;;;;18.48;54.71;100842.77;;;;-56
2021/11/17 03:47:53;;;;;;;3.63;3.27;;;;;;;18.47;54.69;100850.86;;;;-55
2021/11/17 03:51:53;;;;;;;3.67;3.30;;;;;;;18.46;54.73;100857.91;;;;-55
2021/11/17 03:54:53;;;;;;;3.85;3.49;;;;;;;18.45;54.79;100858.40;;;;-55
2021/11/17 03:58:53;;;;;;;3.76;3.43;;;;;;;18.45;54.74;100860.40;;;;-56
2021/11/17 04:01:53;;;;;;;3.83;3.43;;;;;;;18.44;54.75;100872.08;;;;-56
2021/11/17 04:04:54;;;;;;;3.80;3.41;;;;;;;18.43;54.78;100872.08;;;;-56
2021/11/17 04:07:53;;;;;;;3.92;3.54;;;;;;;18.42;54.80;100871.97;;;;-55
2021/11/17 04:10:54;;;;;;;4.02;3.10;;;;;;;18.42;54.75;100871.48;;;;-56
2021/11/17 04:13:53;;;;;;;4.02;3.31;;;;;;;18.42;54.77;100870.59;;;;-55
2021/11/17 04:16:53;;;;;;;3.52;3.21;;;;;;;18.41;54.75;100865.23;;;;-57
2021/11/17 04:19:53;;;;;;;3.63;3.33;;;;;;;18.40;54.79;100875.17;;;;-55
2021/11/17 04:22:53;;;;;;;3.49;3.19;;;;;;;18.39;54.77;100874.28;;;;-57
2021/11/17 04:25:53;;;;;;;3.73;3.40;;;;;;;18.38;54.80;100871.81;;;;-55
2021/11/17 04:28:53;;;;;;;3.75;3.36;;;;;;;18.38;54.77;100871.00;;;;-56
2021/11/17 04:31:53;;;;;;;3.67;3.20;;;;;;;18.37;54.78;100875.87;;;;-56
2021/11/17 04:34:53;;;;;;;3.60;3.30;;;;;;;18.37;54.81;100873.67;;;;-55
2021/11/17 04:37:53;;;;;;;3.44;3.14;;;;;;;18.36;54.76;100869.21;;;;-55
2021/11/17 04:40:53;;;;;;;3.69;3.11;;;;;;;18.36;54.87;100871.13;;;;-56
2021/11/17 04:44:53;;;;;;;4.01;3.37;;;;;;;18.35;54.83;100872.75;;;;-56
2021/11/17 04:47:53;;;;;;;3.58;3.28;;;;;;;18.34;54.84;100871.94;;;;-56
2021/11/17 04:50:53;;;;;;;3.71;3.40;;;;;;;18.34;54.84;100868.49;;;;-56
2021/11/17 04:53:53;;;;;;;3.75;3.39;;;;;;;18.34;54.80;100875.06;;;;-55
2021/11/17 04:56:53;;;;;;;3.45;3.15;;;;;;;18.33;54.81;100880.26;;;;-55
2021/11/17 04:59:53;;;;;;;3.57;3.27;;;;;;;18.32;54.81;100880.47;;;;-55
2021/11/17 05:03:53;;;;;;;3.42;3.12;;;;;;;18.31;54.84;100883.22;;;;-50
2021/11/17 05:06:53;;;;;;;3.59;3.29;;;;;;;18.31;54.82;100883.14;;;;-50
2021/11/17 05:09:53;;;;;;;3.67;3.27;;;;;;;18.30;54.88;100885.38;;;;-50
2021/11/17 05:12:53;;;;;;;3.55;3.25;;;;;;;18.29;54.83;100886.11;;;;-55
2021/11/17 05:15:53;;;;;;;3.46;3.15;;;;;;;18.29;54.88;100889.52;;;;-56
2021/11/17 05:18:53;;;;;;;3.36;3.06;;;;;;;18.28;54.85;100888.50;;;;-57
2021/11/17 05:21:53;;;;;;;3.72;3.37;;;;;;;18.28;54.85;100900.14;;;;-57
2021/11/17 05:24:53;;;;;;;3.84;3.33;;;;;;;18.27;54.88;100898.73;;;;-58
2021/11/17 05:27:53;;;;;;;3.62;3.30;;;;;;;18.26;54.88;100902.05;;;;-57
2021/11/17 05:30:53;;;;;;;3.46;3.16;;;;;;;18.26;54.86;100905.59;;;;-52
2021/11/17 05:33:53;;;;;;;3.81;3.43;;;;;;;18.26;54.88;100904.73;;;;-52
2021/11/17 05:36:53;;;;;;;3.48;3.18;;;;;;;18.26;54.84;100909.32;;;;-52
2021/11/17 05:39:53;;;;;;;3.59;3.00;;;;;;;18.26;54.86;100909.72;;;;-52
2021/11/17 05:42:53;;;;;;;9.87;5.08;;;;;;;18.20;54.00;100908.59;;;;-53
2021/11/17 05:45:53;;;;;;;9.07;5.94;;;;;;;18.16;53.61;100905.27;;;;-51
2021/11/17 05:48:53;;;;;;;7.70;6.20;;;;;;;18.13;53.30;100912.00;;;;-51
2021/11/17 05:51:54;;;;;;;9.56;7.26;;;;;;;18.08;52.97;100912.73;;;;-51
2021/11/17 05:54:53;;;;;;;11.00;7.51;;;;;;;18.05;52.74;100914.84;;;;-52
2021/11/17 05:57:53;;;;;;;10.01;7.85;;;;;;;18.00;52.58;100915.49;;;;-51
2021/11/17 06:00:53;;;;;;;10.39;7.52;;;;;;;17.96;52.44;100915.90;;;;-52
2021/11/17 06:04:53;;;;;;;9.92;7.37;;;;;;;17.93;52.37;100922.50;;;;-51
2021/11/17 06:07:53;;;;;;;10.85;7.94;;;;;;;17.89;52.23;100927.20;;;;-51
2021/11/17 06:10:53;;;;;;;11.01;8.09;;;;;;;17.87;52.12;100925.70;;;;-51
2021/11/17 06:13:53;;;;;;;10.43;8.05;;;;;;;17.84;52.12;100928.54;;;;-51
2021/11/17 06:16:53;;;;;;;9.95;8.01;;;;;;;17.82;52.01;100931.06;;;;-51
2021/11/17 06:19:53;;;;;;;9.58;7.65;;;;;;;17.78;51.96;100939.89;;;;-51
2021/11/17 06:22:53;;;;;;;9.35;7.33;;;;;;;17.76;51.95;100941.67;;;;-52
2021/11/17 06:25:53;;;;;;;9.38;7.25;;;;;;;17.74;51.88;100939.64;;;;-51
2021/11/17 06:28:53;;;;;;;9.03;6.90;;;;;;;17.71;51.78;100941.13;;;;-51
2021/11/17 06:31:53;;;;;;;9.28;6.87;;;;;;;17.67;51.73;100944.62;;;;-55
2021/11/17 06:34:53;;;;;;;9.26;7.05;;;;;;;17.66;51.70;100945.27;;;;-56
2021/11/17 06:37:56;;;;;;;10.67;7.58;;;;;;;17.64;51.69;100950.45;;;;-58
2021/11/17 06:40:53;;;;;;;9.58;6.86;;;;;;;17.62;51.63;100950.23;;;;-56
2021/11/17 06:43:53;;;;;;;8.65;6.78;;;;;;;17.60;51.68;100957.20;;;;-51
2021/11/17 06:46:53;;;;;;;9.41;6.77;;;;;;;17.58;51.66;100955.45;;;;-51
2021/11/17 06:49:54;;;;;;;9.18;6.66;;;;;;;17.55;51.54;100957.64;;;;-51
2021/11/17 06:52:53;;;;;;;9.27;6.99;;;;;;;17.53;51.58;100972.42;;;;-53
2021/11/17 06:55:53;;;;;;;9.52;6.85;;;;;;;17.50;51.56;100973.42;;;;-52
2021/11/17 06:58:53;;;;;;;11.87;6.85;;;;;;;17.55;51.93;100976.28;;;;-51
2021/11/17 07:01:53;;;;;;;7.68;5.99;;;;;;;17.60;52.25;100980.30;;;;-51
2021/11/17 07:04:53;;;;;;;8.86;5.71;;;;;;;17.65;52.40;100985.50;;;;-51
2021/11/17 07:07:54;;;;;;;6.47;5.23;;;;;;;17.70;52.60;100995.92;;;;-51
2021/11/17 07:10:53;;;;;;;8.41;4.85;;;;;;;17.74;52.72;101001.17;;;;-51
2021/11/17 07:13:53;;;;;;;5.29;4.44;;;;;;;17.80;52.83;101005.28;;;;-51
2021/11/17 07:16:53;;;;;;;5.66;4.44;;;;;;;17.84;52.88;101009.13;;;;-51
2021/11/17 07:19:53;;;;;;;5.44;4.25;;;;;;;17.89;52.98;101007.47;;;;-51
2021/11/17 07:22:53;;;;;;;4.85;4.21;;;;;;;17.93;53.04;101009.87;;;;-51
2021/11/17 07:25:53;;;;;;;5.07;4.19;;;;;;;17.97;53.14;101014.27;;;;-51
2021/11/17 07:28:53;;;;;;;4.84;3.77;;;;;;;18.01;53.23;101014.67;;;;-51
2021/11/17 07:31:53;;;;;;;4.50;3.58;;;;;;;18.05;53.24;101018.41;;;;-51
2021/11/17 07:34:53;;;;;;;3.91;3.45;;;;;;;18.08;53.34;101020.12;;;;-51
2021/11/17 07:37:53;;;;;;;4.43;3.37;;;;;;;18.10;53.41;101018.30;;;;-51
2021/11/17 07:40:53;;;;;;;3.54;3.23;;;;;;;18.12;53.41;101020.94;;;;-51
2021/11/17 07:43:53;;;;;;;3.90;3.45;;;;;;;18.15;53.51;101029.83;;;;-51
2021/11/17 07:46:53;;;;;;;3.68;3.29;;;;;;;18.17;53.46;101038.62;;;;-50
2021/11/17 07:49:53;;;;;;;3.69;3.19;;;;;;;18.19;53.49;101041.34;;;;-51
2021/11/17 07:52:53;;;;;;;3.70;3.17;;;;;;;18.20;53.63;101044.88;;;;-51
2021/11/17 07:55:53;;;;;;;3.59;3.15;;;;;;;18.22;53.64;101049.19;;;;-51
2021/11/17 07:58:53;;;;;;;3.79;3.22;;;;;;;18.22;53.67;101049.63;;;;-51
2021/11/17 08:01:53;;;;;;;3.67;3.13;;;;;;;18.23;53.64;101048.98;;;;-51
2021/11/17 08:04:53;;;;;;;3.73;2.85;;;;;;;18.24;53.69;101047.72;;;;-51
2021/11/17 08:07:53;;;;;;;4.01;3.21;;;;;;;18.25;53.71;101049.84;;;;-51
2021/11/17 08:10:53;;;;;;;3.06;2.78;;;;;;;18.26;53.61;101048.95;;;;-51
2021/11/17 08:13:53;;;;;;;3.52;3.20;;;;;;;18.27;53.68;101048.49;;;;-49
2021/11/17 08:16:53;;;;;;;3.27;2.95;;;;;;;18.27;53.65;101045.49;;;;-49
2021/11/17 08:19:53;;;;;;;3.33;2.83;;;;;;;18.27;53.63;101052.30;;;;-49
2021/11/17 08:22:53;;;;;;;3.18;2.88;;;;;;;18.28;53.64;101061.48;;;;-49
2021/11/17 08:25:53;;;;;;;3.59;2.78;;;;;;;18.28;53.68;101060.99;;;;-46
2021/11/17 08:28:53;;;;;;;6.75;3.43;;;;;;;18.29;53.54;101063.22;;;;-51
2021/11/17 08:31:53;;;;;;;11.19;3.05;;;;;;;18.32;53.92;101060.34;;;;-49
2021/11/17 08:34:53;;;;;;;4.05;2.85;;;;;;;18.30;53.53;101060.80;;;;-50
2021/11/17 08:37:53;;;;;;;4.71;2.95;;;;;;;18.30;53.66;101057.17;;;;-58
2021/11/17 08:40:53;;;;;;;4.75;2.95;;;;;;;18.31;53.64;101061.23;;;;-56
2021/11/17 08:43:53;;;;;;;3.81;2.59;;;;;;;18.30;53.66;101059.77;;;;-57
2021/11/17 08:46:53;;;;;;;3.55;2.77;;;;;;;18.31;53.67;101061.31;;;;-57
2021/11/17 08:49:54;;;;;;;2.95;2.60;;;;;;;18.30;53.70;101063.34;;;;-58
2021/11/17 08:52:53;;;;;;;3.47;2.61;;;;;;;18.31;53.70;101072.27;;;;-56
2021/11/17 08:55:53;;;;;;;3.30;2.67;;;;;;;18.30;53.70;101071.50;;;;-57
2021/11/17 08:58:53;;;;;;;2.94;2.63;;;;;;;18.31;53.74;101077.87;;;;-58
2021/11/17 09:01:53;;;;;;;2.85;2.61;;;;;;;18.30;53.72;101075.80;;;;-58
2021/11/17 09:04:53;;;;;;;4.03;2.77;;;;;;;18.32;54.00;101077.06;;;;-57
2021/11/17 09:07:54;;;;;;;5.33;2.65;;;;;;;18.34;54.30;101085.30;;;;-54
2021/11/17 09:10:53;;;;;;;6.12;2.75;;;;;;;18.36;54.67;101093.55;;;;-52
2021/11/17 09:13:53;;;;;;;3.31;2.68;;;;;;;18.40;54.70;101092.41;;;;-53
2021/11/17 09:16:53;;;;;;;4.96;2.72;;;;;;;18.44;54.69;101092.50;;;;-57
2021/11/17 09:19:53;;;;;;;3.63;2.64;;;;;;;18.48;54.77;101090.80;;;;-58
2021/11/17 09:22:53;;;;;;;2.85;2.38;;;;;;;18.53;54.69;101094.89;;;;-52
2021/11/17 09:25:53;;;;;;;3.49;2.48;;;;;;;18.57;54.77;101094.41;;;;-52
2021/11/17 09:28:53;;;;;;;4.05;2.43;;;;;;;18.63;55.07;101094.02;;;;-54
2021/11/17 09:31:54;;;;;;;8.24;2.56;;;;;;;18.68;55.01;101099.48;;;;-51
2021/11/17 09:34:53;;;;;;;2.62;2.31;;;;;;;18.75;55.06;101103.43;;;;-55
2021/11/17 09:37:53;;;;;;;4.55;2.56;;;;;;;18.81;55.09;101102.45;;;;-57
2021/11/17 09:40:53;;;;;;;4.39;2.37;;;;;;;18.88;55.55;101107.96;;;;-54
2021/11/17 09:43:53;;;;;;;3.27;2.46;;;;;;;18.93;54.54;101105.60;;;;-54
2021/11/17 09:46:53;;;;;;;3.03;2.41;;;;;;;18.94;54.34;101103.25;;;;-53
2021/11/17 09:49:53;;;;;;;4.92;2.27;;;;;;;19.00;54.99;101103.77;;;;-49
2021/11/17 09:52:53;;;;;;;2.61;2.35;;;;;;;19.06;54.96;101103.48;;;;-52
2021/11/17 09:55:53;;;;;;;3.65;2.25;;;;;;;19.10;54.78;101113.47;;;;-54
2021/11/17 09:58:54;;;;;;;3.65;2.43;;;;;;;19.16;54.97;101112.12;;;;-52
2021/11/17 10:01:53;;;;;;;2.48;2.27;;;;;;;19.17;54.61;101111.63;;;;-53
2021/11/17 10:04:53;;;;;;;3.15;2.20;;;;;;;19.17;54.49;101117.52;;;;-52
2021/11/17 10:11:14;;;;;;;2.33;2.11;;;;;;;19.17;54.25;101115.24;;;;-53
2021/11/17 10:13:56;;;;;;;3.35;2.27;;;;;;;19.18;54.18;101113.12;;;;-53
2021/11/17 10:16:53;;;;;;;3.99;2.25;;;;;;;19.18;54.35;101113.13;;;;-52
2021/11/17 10:19:53;;;;;;;2.79;2.17;;;;;;;19.20;54.33;101110.08;;;;-52
2021/11/17 10:22:53;;;;;;;2.34;2.10;;;;;;;19.20;54.34;101116.02;;;;-53
2021/11/17 10:25:53;;;;;;;2.31;2.11;;;;;;;19.21;54.30;101119.42;;;;-53
2021/11/17 10:28:54;;;;;;;2.39;2.17;;;;;;;19.21;54.35;101131.53;;;;-53
2021/11/17 10:31:53;;;;;;;2.75;2.14;;;;;;;19.21;54.34;101132.27;;;;-53
2021/11/17 10:34:53;;;;;;;2.47;2.07;;;;;;;19.21;54.27;101133.80;;;;-53
2021/11/17 10:37:53;;;;;;;2.85;2.10;;;;;;;19.20;54.29;101131.45;;;;-53
2021/11/17 10:40:54;;;;;;;2.39;2.19;;;;;;;19.19;54.24;101127.67;;;;-53
2021/11/17 10:43:53;;;;;;;3.07;1.99;;;;;;;19.19;54.19;101120.69;;;;-53
2021/11/17 10:46:55;;;;;;;2.79;1.99;;;;;;;19.19;54.19;101120.36;;;;-50
2021/11/17 10:49:54;;;;;;;2.59;2.22;;;;;;;19.18;54.16;101124.99;;;;-49
2021/11/17 10:52:53;;;;;;;2.37;1.93;;;;;;;19.17;54.08;101124.02;;;;-49
2021/11/17 10:55:53;;;;;;;2.09;1.77;;;;;;;19.17;54.11;101130.08;;;;-49
2021/11/17 10:58:53;;;;;;;3.01;2.01;;;;;;;19.15;54.05;101129.83;;;;-55
2021/11/17 11:01:53;;;;;;;1.97;1.82;;;;;;;19.15;54.08;101131.99;;;;-55
2021/11/17 11:04:53;;;;;;;2.12;1.88;;;;;;;19.15;53.94;101128.90;;;;-55
2021/11/17 11:07:53;;;;;;;2.39;1.87;;;;;;;19.13;53.96;101127.52;;;;-55
2021/11/17 11:10:53;;;;;;;2.93;1.94;;;;;;;19.13;53.96;101125.77;;;;-52
2021/11/17 11:13:54;;;;;;;2.70;1.80;;;;;;;19.12;53.92;101130.08;;;;-52
2021/11/17 11:16:53;;;;;;;2.83;1.96;;;;;;;19.11;53.88;101133.66;;;;-53
2021/11/17 11:19:53;;;;;;;2.37;2.02;;;;;;;19.11;53.86;101130.28;;;;-52
2021/11/17 11:22:53;;;;;;;2.15;1.95;;;;;;;19.10;53.85;101128.74;;;;-51
2021/11/17 11:25:53;;;;;;;2.09;1.89;;;;;;;19.09;53.93;101126.02;;;;-55
2021/11/17 11:28:55;;;;;;;3.08;1.99;;;;;;;19.07;53.81;101124.15;;;;-55
2021/11/17 11:31:53;;;;;;;3.75;1.93;;;;;;;19.06;53.77;101125.01;;;;-49
2021/11/17 11:34:53;;;;;;;2.00;1.80;;;;;;;19.06;53.79;101121.68;;;;-50
2021/11/17 11:37:53;;;;;;;2.03;1.85;;;;;;;19.04;53.76;101116.69;;;;-51
2021/11/17 11:40:53;;;;;;;2.99;1.87;;;;;;;19.04;53.79;101120.59;;;;-51
2021/11/17 11:43:53;;;;;;;2.09;1.82;;;;;;;19.03;53.76;101120.02;;;;-49
2021/11/17 11:46:53;;;;;;;2.17;1.97;;;;;;;19.01;53.77;101120.38;;;;-52
2021/11/17 11:49:53;;;;;;;2.37;1.89;;;;;;;19.01;53.78;101122.89;;;;-54
2021/11/17 11:52:53;;;;;;;2.13;1.91;;;;;;;18.99;53.88;101122.78;;;;-53
2021/11/17 11:55:53;;;;;;;2.03;1.83;;;;;;;18.97;53.85;101118.84;;;;-52
2021/11/17 11:58:53;;;;;;;1.90;1.80;;;;;;;18.96;53.89;101121.48;;;;-49
2021/11/17 12:01:53;;;;;;;1.98;1.79;;;;;;;18.95;53.86;101121.80;;;;-49
2021/11/17 12:04:53;;;;;;;1.82;1.67;;;;;;;18.94;53.88;101120.23;;;;-51
2021/11/17 12:07:53;;;;;;;2.05;1.85;;;;;;;18.93;53.87;101115.59;;;;-55
2021/11/17 12:10:57;;;;;;;2.03;1.83;;;;;;;18.92;53.92;101114.26;;;;-52
2021/11/17 12:13:53;;;;;;;1.83;1.73;;;;;;;18.91;53.93;101112.39;;;;-52
2021/11/17 12:16:53;;;;;;;2.33;1.82;;;;;;;18.89;53.90;101107.23;;;;-52
2021/11/17 12:19:53;;;;;;;2.01;1.81;;;;;;;18.88;53.87;101104.55;;;;-53
2021/11/17 12:22:53;;;;;;;1.78;1.68;;;;;;;18.87;53.88;101107.20;;;;-52
2021/11/17 12:25:53;;;;;;;1.93;1.79;;;;;;;18.86;53.93;101107.32;;;;-50
2021/11/17 12:28:53;;;;;;;2.00;1.77;;;;;;;18.86;53.86;101112.03;;;;-54
2021/11/17 12:31:53;;;;;;;1.97;1.77;;;;;;;18.85;53.89;101102.60;;;;-54
2021/11/17 12:34:53;;;;;;;2.25;1.79;;;;;;;18.84;53.92;101104.77;;;;-50
2021/11/17 12:37:53;;;;;;;1.91;1.71;;;;;;;18.83;53.86;101111.01;;;;-54
2021/11/17 12:40:53;;;;;;;1.87;1.73;;;;;;;18.82;53.94;101111.37;;;;-49
2021/11/17 12:43:57;;;;;;;1.82;1.69;;;;;;;18.81;53.87;101111.30;;;;-52
2021/11/17 12:46:53;;;;;;;1.80;1.70;;;;;;;18.80;53.93;101109.39;;;;-51
2021/11/17 12:49:53;;;;;;;1.97;1.77;;;;;;;18.79;53.92;101108.41;;;;-50
2021/11/17 12:52:53;;;;;;;2.77;1.86;;;;;;;18.79;53.89;101105.00;;;;-51
2021/11/17 12:55:53;;;;;;;2.38;1.70;;;;;;;18.77;53.96;101096.41;;;;-54
2021/11/17 12:58:53;;;;;;;1.69;1.59;;;;;;;18.77;53.90;101099.73;;;;-54
2021/11/17 13:01:53;;;;;;;1.93;1.67;;;;;;;18.77;53.89;101090.48;;;;-54
2021/11/17 13:04:53;;;;;;;1.97;1.77;;;;;;;18.76;53.98;101103.95;;;;-56
2021/11/17 13:07:53;;;;;;;1.71;1.61;;;;;;;18.76;53.96;101120.16;;;;-54
2021/11/17 13:10:53;;;;;;;1.69;1.59;;;;;;;18.76;53.99;101113.34;;;;-55
2021/11/17 13:13:55;;;;;;;1.60;1.50;;;;;;;18.74;54.00;101103.83;;;;-55
2021/11/17 13:16:53;;;;;;;1.74;1.64;;;;;;;18.74;53.99;101113.33;;;;-49
2021/11/17 13:19:53;;;;;;;12.65;1.91;;;;;;;18.75;54.89;101103.51;;;;-53
2021/11/17 13:22:53;;;;;;;4.75;1.63;;;;;;;18.75;54.28;101105.86;;;;-52
2021/11/17 13:25:53;;;;;;;3.91;1.79;;;;;;;18.76;53.87;101112.89;;;;-52
2021/11/17 13:28:53;;;;;;;2.72;1.89;;;;;;;18.79;53.63;101106.62;;;;-53
2021/11/17 13:31:53;;;;;;;7.47;2.02;;;;;;;18.82;53.78;101109.67;;;;-51
2021/11/17 13:34:53;;;;;;;3.20;2.11;;;;;;;18.83;53.65;101106.06;;;;-48
2021/11/17 13:37:53;;;;;;;4.82;1.95;;;;;;;18.89;54.04;101116.57;;;;-52
2021/11/17 13:41:54;;;;;;;2.79;1.85;;;;;;;18.94;53.94;101128.43;;;;-51
2021/11/17 13:44:53;;;;;;;2.17;1.67;;;;;;;19.00;53.95;101131.23;;;;-53
2021/11/17 13:47:53;;;;;;;4.59;1.91;;;;;;;19.04;54.06;101129.92;;;;-52
2021/11/17 13:50:53;;;;;;;3.06;1.70;;;;;;;19.08;53.85;101146.58;;;;-54
2021/11/17 13:53:53;;;;;;;4.39;1.83;;;;;;;19.13;54.06;101146.98;;;;-50
2021/11/17 13:56:53;;;;;;;4.79;1.87;;;;;;;19.16;54.22;101143.97;;;;-51
2021/11/17 13:59:53;;;;;;;5.07;1.70;;;;;;;19.20;53.98;101142.98;;;;-49
2021/11/17 14:02:54;;;;;;;2.09;1.73;;;;;;;19.23;54.00;101140.92;;;;-48
2021/11/17 14:05:53;;;;;;;2.67;1.86;;;;;;;19.25;53.71;101136.89;;;;-47
2021/11/17 14:08:53;;;;;;;1.81;1.69;;;;;;;19.28;53.49;101144.00;;;;-56
2021/11/17 14:11:53;;;;;;;2.59;1.71;;;;;;;19.31;53.36;101141.63;;;;-51
2021/11/17 14:14:53;;;;;;;4.18;1.65;;;;;;;19.33;53.46;101140.70;;;;-48
2021/11/17 14:17:53;;;;;;;2.33;1.53;;;;;;;19.36;53.90;101138.05;;;;-53
2021/11/17 14:20:53;;;;;;;1.87;1.72;;;;;;;19.39;53.45;101141.61;;;;-56
2021/11/17 14:23:53;;;;;;;2.15;1.65;;;;;;;19.40;53.20;101144.82;;;;-57
2021/11/17 14:26:53;;;;;;;2.37;1.68;;;;;;;19.42;52.79;101145.97;;;;-48
2021/11/17 14:29:53;;;;;;;1.95;1.80;;;;;;;19.45;53.34;101151.89;;;;-50
2021/11/17 14:32:53;;;;;;;1.71;1.61;;;;;;;19.46;52.61;101143.79;;;;-52
2021/11/17 14:35:53;;;;;;;2.03;1.57;;;;;;;19.49;53.04;101139.69;;;;-59
2021/11/17 14:38:53;;;;;;;2.32;1.52;;;;;;;19.52;52.93;101148.58;;;;-59
2021/11/17 14:41:53;;;;;;;1.63;1.52;;;;;;;19.55;52.80;101149.27;;;;-52
2021/11/17 14:44:53;;;;;;;2.58;1.65;;;;;;;19.58;53.14;101154.05;;;;-54
2021/11/17 14:47:53;;;;;;;3.05;1.64;;;;;;;19.60;53.11;101158.88;;;;-55
2021/11/17 14:50:53;;;;;;;1.80;1.59;;;;;;;19.64;53.25;101159.77;;;;-48
2021/11/17 14:53:53;;;;;;;4.67;1.78;;;;;;;19.66;52.60;101153.30;;;;-53
2021/11/17 14:56:53;;;;;;;4.90;1.75;;;;;;;19.68;52.95;101166.17;;;;-51
2021/11/17 14:59:53;;;;;;;3.06;1.80;;;;;;;19.69;53.06;101164.88;;;;-51
2021/11/17 15:02:55;;;;;;;4.79;1.60;;;;;;;19.70;52.98;101174.59;;;;-50
2021/11/17 15:05:53;;;;;;;3.17;1.51;;;;;;;19.70;53.09;101175.08;;;;-58
2021/11/17 15:08:53;;;;;;;1.73;1.59;;;;;;;19.71;53.16;101180.15;;;;-58
2021/11/17 15:11:53;;;;;;;1.39;1.29;;;;;;;19.71;53.18;101183.41;;;;-58
2021/11/17 15:14:53;;;;;;;1.64;1.54;;;;;;;19.72;53.17;101179.45;;;;-58
2021/11/17 15:17:54;;;;;;;3.03;1.50;;;;;;;19.72;53.27;101179.13;;;;-57
2021/11/17 15:20:53;;;;;;;2.85;1.50;;;;;;;19.74;53.22;101182.98;;;;-58
2021/11/17 15:23:53;;;;;;;2.64;1.50;;;;;;;19.74;53.24;101183.88;;;;-57
2021/11/17 15:26:53;;;;;;;3.09;1.73;;;;;;;19.75;53.26;101187.22;;;;-50
2021/11/17 15:29:53;;;;;;;1.59;1.37;;;;;;;19.75;53.28;101182.58;;;;-58
2021/11/17 15:32:53;;;;;;;1.80;1.54;;;;;;;19.76;53.28;101186.92;;;;-57
2021/11/17 15:35:53;;;;;;;1.49;1.39;;;;;;;19.77;53.28;101193.76;;;;-50
2021/11/17 15:38:53;;;;;;;2.31;1.63;;;;;;;19.80;53.51;101192.84;;;;-46
2021/11/17 15:41:53;;;;;;;3.01;1.50;;;;;;;19.88;53.45;101194.94;;;;-50
2021/11/17 15:44:53;;;;;;;3.93;1.54;;;;;;;19.88;53.36;101196.41;;;;-48
2021/11/17 15:47:53;;;;;;;2.95;1.70;;;;;;;19.90;53.40;101194.73;;;;-48
2021/11/17 15:50:53;;;;;;;1.98;1.55;;;;;;;19.92;53.10;101197.17;;;;-47
2021/11/17 15:53:53;;;;;;;1.45;1.34;;;;;;;19.95;53.27;101204.55;;;;-47
2021/11/17 15:56:53;;;;;;;2.01;1.45;;;;;;;19.98;53.18;101209.15;;;;-46
2021/11/17 15:59:53;;;;;;;4.44;1.65;;;;;;;20.00;52.98;101209.42;;;;-48
2021/11/17 16:02:53;;;;;;;2.51;1.53;;;;;;;20.03;53.32;101210.14;;;;-54
2021/11/17 16:05:53;;;;;;;3.90;1.59;;;;;;;20.05;53.16;101215.22;;;;-48
2021/11/17 16:08:53;;;;;;;2.54;1.63;;;;;;;20.08;53.12;101214.44;;;;-50
2021/11/17 16:11:53;;;;;;;3.94;1.73;;;;;;;20.07;51.99;101216.06;;;;-54
2021/11/17 16:14:53;;;;;;;3.08;1.47;;;;;;;20.07;51.76;101220.86;;;;-48
2021/11/17 16:17:53;;;;;;;5.35;1.59;;;;;;;20.06;52.63;101224.58;;;;-47
2021/11/17 16:20:54;;;;;;;3.94;1.64;;;;;;;20.08;52.76;101225.67;;;;-56
2021/11/17 16:26:53;;;;;;;3.25;1.65;;;;;;;20.12;52.58;101226.47;;;;-52
2021/11/17 16:29:53;;;;;;;2.47;1.53;;;;;;;20.12;52.58;101231.84;;;;-52
2021/11/17 16:32:53;;;;;;;3.37;1.75;;;;;;;20.12;52.58;101234.84;;;;-52
2021/11/17 16:35:53;;;;;;;6.57;1.89;;;;;;;20.12;52.63;101237.94;;;;-54
2021/11/17 16:38:53;;;;;;;4.81;1.67;;;;;;;20.14;52.85;101239.03;;;;-57
2021/11/17 16:44:53;;;;;;;6.21;1.73;;;;;;;20.17;52.85;101241.53;;;;-49
2021/11/17 16:47:53;;;;;;;3.23;1.54;;;;;;;20.18;53.04;101246.75;;;;-52
2021/11/17 16:50:53;;;;;;;2.83;1.42;;;;;;;20.18;53.14;101251.22;;;;-51
2021/11/17 16:53:53;;;;;;;3.11;1.52;;;;;;;20.19;53.21;101259.64;;;;-50
2021/11/17 16:56:53;;;;;;;2.81;1.65;;;;;;;20.23;53.34;101261.95;;;;-56
2021/11/17 16:59:53;;;;;;;2.29;1.50;;;;;;;20.25;53.27;101254.33;;;;-51
2021/11/17 17:02:53;;;;;;;1.73;1.50;;;;;;;20.27;53.26;101258.69;;;;-56
2021/11/17 17:05:53;;;;;;;2.01;1.51;;;;;;;20.28;53.34;101261.64;;;;-55
2021/11/17 17:08:54;;;;;;;3.05;1.53;;;;;;;20.31;53.38;101265.50;;;;-57
2021/11/17 17:11:53;;;;;;;2.56;1.66;;;;;;;20.35;53.36;101270.61;;;;-55
2021/11/17 17:14:53;;;;;;;2.13;1.52;;;;;;;20.38;53.31;101274.18;;;;-52
2021/11/17 17:17:53;;;;;;;3.26;1.40;;;;;;;20.41;53.46;101280.89;;;;-54
2021/11/17 17:20:53;;;;;;;1.43;1.33;;;;;;;20.41;53.54;101278.20;;;;-53
2021/11/17 17:23:54;;;;;;;1.64;1.45;;;;;;;20.41;53.45;101284.63;;;;-53
2021/11/17 17:26:53;;;;;;;3.09;1.39;;;;;;;20.42;53.69;101282.55;;;;-50
2021/11/17 17:29:53;;;;;;;2.25;1.53;;;;;;;20.45;53.98;101286.57;;;;-49
2021/11/17 17:32:53;;;;;;;1.63;1.50;;;;;;;20.45;53.67;101291.62;;;;-54
2021/11/17 17:35:53;;;;;;;2.02;1.52;;;;;;;20.46;53.94;101298.25;;;;-54
2021/11/17 17:38:53;;;;;;;1.72;1.42;;;;;;;20.45;53.54;101298.54;;;;-55
2021/11/17 17:41:54;;;;;;;2.07;1.31;;;;;;;20.47;53.98;101298.48;;;;-51
2021/11/17 17:44:53;;;;;;;3.79;1.47;;;;;;;20.48;54.02;101300.23;;;;-53
2021/11/17 17:47:53;;;;;;;1.96;1.36;;;;;;;20.48;53.92;101301.99;;;;-51
2021/11/17 17:50:53;;;;;;;1.48;1.25;;;;;;;20.51;54.19;101301.81;;;;-55
2021/11/17 17:53:53;;;;;;;1.64;1.47;;;;;;;20.51;54.16;101307.34;;;;-52
2021/11/17 17:56:53;;;;;;;1.74;1.40;;;;;;;20.52;54.36;101310.94;;;;-56
2021/11/17 17:59:53;;;;;;;1.49;1.39;;;;;;;20.53;54.05;101312.84;;;;-54
2021/11/17 18:02:53;;;;;;;1.65;1.36;;;;;;;20.53;54.50;101313.65;;;;-54
2021/11/17 18:05:53;;;;;;;1.68;1.41;;;;;;;20.54;54.44;101313.27;;;;-53
2021/11/17 18:08:53;;;;;;;3.17;1.59;;;;;;;20.53;53.72;101313.00;;;;-54
2021/11/17 18:11:53;;;;;;;1.55;1.45;;;;;;;20.52;53.55;101321.39;;;;-54
2021/11/17 18:14:53;;;;;;;1.54;1.44;;;;;;;20.52;53.47;101327.14;;;;-54
2021/11/17 18:17:53;;;;;;;2.03;1.38;;;;;;;20.50;53.45;101330.69;;;;-54
2021/11/17 18:20:53;;;;;;;2.17;1.46;;;;;;;20.50;53.37;101336.80;;;;-54
2021/11/17 18:23:53;;;;;;;3.52;1.43;;;;;;;20.49;53.34;101341.11;;;;-48
2021/11/17 18:26:53;;;;;;;2.03;1.49;;;;;;;20.48;53.32;101347.86;;;;-48
2021/11/17 18:29:53;;;;;;;2.23;1.65;;;;;;;20.47;53.21;101363.80;;;;-47
2021/11/17 18:32:54;;;;;;;5.27;2.37;;;;;;;20.24;50.89;101366.50;;;;-53
2021/11/17 18:35:53;;;;;;;3.35;2.77;;;;;;;20.10;50.20;101371.28;;;;-51
2021/11/17 18:38:53;;;;;;;3.43;2.88;;;;;;;20.00;49.70;101375.16;;;;-51
2021/11/17 18:41:55;;;;;;;2.91;2.67;;;;;;;19.89;49.42;101378.63;;;;-56
2021/11/17 18:44:53;;;;;;;3.90;3.05;;;;;;;19.83;49.20;101379.31;;;;-52
2021/11/17 18:47:53;;;;;;;3.95;3.27;;;;;;;19.72;48.82;101381.88;;;;-47
2021/11/17 18:50:54;;;;;;;6.96;3.07;;;;;;;19.82;49.36;101390.70;;;;-50
2021/11/17 18:53:53;;;;;;;4.25;2.50;;;;;;;19.88;49.80;101386.97;;;;-48
2021/11/17 18:56:56;;;;;;;3.90;2.40;;;;;;;19.92;50.21;101385.26;;;;-51
2021/11/17 18:59:53;;;;;;;2.73;2.20;;;;;;;19.94;50.51;101389.23;;;;-51
2021/11/17 19:02:53;;;;;;;2.71;2.12;;;;;;;19.95;50.62;101394.77;;;;-51
2021/11/17 19:05:53;;;;;;;2.38;1.88;;;;;;;19.97;50.78;101401.16;;;;-51
2021/11/17 19:08:53;;;;;;;2.18;1.98;;;;;;;19.98;50.94;101403.03;;;;-51
2021/11/17 19:11:53;;;;;;;2.06;1.81;;;;;;;19.96;51.02;101404.73;;;;-51
2021/11/17 19:14:53;;;;;;;2.10;1.90;;;;;;;19.97;51.10;101409.13;;;;-51
2021/11/17 19:17:53;;;;;;;2.23;1.85;;;;;;;19.97;51.20;101421.17;;;;-51
2021/11/17 19:20:53;;;;;;;2.14;1.85;;;;;;;19.95;51.31;101420.48;;;;-51
2021/11/17 19:23:53;;;;;;;4.09;1.94;;;;;;;19.96;51.39;101427.97;;;;-51